createdAt,value
2023-04-11T00:02:43.705Z,95886.66
2023-04-11T00:05:32.708Z,95887.28
2023-04-11T00:08:17.674Z,95888.66
2023-04-11T00:11:03.003Z,95887.03
2023-04-11T00:13:48.819Z,95884.75
2023-04-11T00:16:34.017Z,95882.97
2023-04-11T00:19:23.611Z,95884.13
2023-04-11T00:22:09.405Z,95883.28
2023-04-11T00:24:54.451Z,95877.25
2023-04-11T00:27:39.770Z,95876.59
2023-04-11T00:30:25.202Z,95873.16
2023-04-11T00:33:10.615Z,95879.50
2023-04-11T00:35:56.059Z,95874.44
2023-04-11T00:38:41.425Z,95874.44
2023-04-11T00:41:27.499Z,95875.25
2023-04-11T00:44:14.073Z,95870.00
2023-04-11T00:47:01.428Z,95863.09
2023-04-11T00:49:46.699Z,95854.38
2023-04-11T00:52:32.335Z,95863.72
2023-04-11T00:55:17.671Z,95852.00
2023-04-11T00:58:03.757Z,95851.41
2023-04-11T01:00:50.074Z,95854.28
2023-04-11T01:03:39.074Z,95862.81
2023-04-11T01:06:24.507Z,95857.72
2023-04-11T01:09:09.739Z,95857.56
2023-04-11T01:11:56.240Z,95849.50
2023-04-11T01:14:41.757Z,95850.09
2023-04-11T01:17:27.199Z,95843.84
2023-04-11T01:20:13.107Z,95837.22
2023-04-11T01:23:01.988Z,95837.84
2023-04-11T01:25:47.211Z,95831.41
2023-04-11T01:28:32.486Z,95835.84
2023-04-11T01:31:17.756Z,95826.09
2023-04-11T01:34:04.475Z,95825.63
2023-04-11T01:36:49.789Z,95830.97
2023-04-11T01:39:35.000Z,95823.53
2023-04-11T01:42:21.864Z,95830.59
2023-04-11T01:45:08.180Z,95829.75
2023-04-11T01:47:56.469Z,95823.72
2023-04-11T01:50:41.988Z,95827.78
2023-04-11T01:53:27.652Z,95820.06
2023-04-11T01:56:13.347Z,95816.47
2023-04-11T01:58:59.237Z,95808.81
2023-04-11T02:01:44.690Z,95808.00
2023-04-11T02:04:29.969Z,95808.81
2023-04-11T02:07:15.239Z,95802.59
2023-04-11T02:10:01.068Z,95797.13
2023-04-11T02:12:46.558Z,95791.88
2023-04-11T02:15:31.957Z,95788.22
2023-04-11T02:18:17.450Z,95782.81
2023-04-11T02:21:02.665Z,95774.91
2023-04-11T02:23:48.077Z,95779.72
2023-04-11T02:26:33.466Z,95767.56
2023-04-11T02:29:18.686Z,95771.09
2023-04-11T02:32:04.144Z,95769.63
2023-04-11T02:34:49.406Z,95764.63
2023-04-11T02:37:35.165Z,95763.13
2023-04-11T02:40:20.284Z,95758.94
2023-04-11T02:43:05.636Z,95757.44
2023-04-11T02:45:54.287Z,95751.72
2023-04-11T02:48:44.539Z,95747.56
2023-04-11T02:51:29.801Z,95745.13
2023-04-11T02:54:15.198Z,95751.47
2023-04-11T02:57:00.872Z,95741.00
2023-04-11T02:59:45.983Z,95741.47
2023-04-11T03:02:31.581Z,95744.09
2023-04-11T03:05:17.159Z,95739.81
2023-04-11T03:08:02.686Z,95741.47
2023-04-11T03:10:47.829Z,95739.28
2023-04-11T03:13:33.709Z,95734.41
2023-04-11T03:16:19.997Z,95731.59
2023-04-11T03:19:05.981Z,95735.13
2023-04-11T03:21:52.751Z,95730.69
2023-04-11T03:24:41.404Z,95719.16
2023-04-11T03:27:27.185Z,95718.97
2023-04-11T03:30:13.882Z,95715.53
2023-04-11T03:33:02.362Z,95717.59
2023-04-11T03:35:47.691Z,95719.16
2023-04-11T03:38:33.207Z,95720.34
2023-04-11T03:41:19.565Z,95706.94
2023-04-11T03:44:05.019Z,95704.56
2023-04-11T03:46:50.373Z,95711.25
2023-04-11T03:49:35.706Z,95703.19
2023-04-11T03:52:21.061Z,95706.63
2023-04-11T03:55:06.540Z,95701.00
2023-04-11T03:57:51.997Z,95705.44
2023-04-11T04:00:37.518Z,95713.16
2023-04-11T04:03:22.904Z,95721.59
2023-04-11T04:06:08.853Z,95727.22
2023-04-11T04:08:53.866Z,95716.91
2023-04-11T04:11:39.166Z,95716.72
2023-04-11T04:14:24.434Z,95715.94
2023-04-11T04:17:09.977Z,95711.97
2023-04-11T04:19:55.053Z,95713.56
2023-04-11T04:22:40.251Z,95711.97
2023-04-11T04:25:26.158Z,95714.78
2023-04-11T04:28:11.459Z,95707.91
2023-04-11T04:30:58.229Z,95708.31
2023-04-11T04:33:43.540Z,95709.97
2023-04-11T04:36:29.425Z,95710.69
2023-04-11T04:39:18.835Z,95711.91
2023-04-11T04:42:04.300Z,95710.34
2023-04-11T04:44:50.839Z,95715.66
2023-04-11T04:47:37.626Z,95715.66
2023-04-11T04:50:23.210Z,95714.84
2023-04-11T04:53:08.500Z,95711.22
2023-04-11T04:55:53.904Z,95716.22
2023-04-11T04:58:39.335Z,95720.88
2023-04-11T05:01:26.851Z,95722.34
2023-04-11T05:04:12.255Z,95722.09
2023-04-11T05:06:57.323Z,95725.69
2023-04-11T05:09:42.774Z,95727.44
2023-04-11T05:12:28.119Z,95724.28
2023-04-11T05:15:15.076Z,95720.63
2023-04-11T05:18:00.939Z,95733.59
2023-04-11T05:20:46.242Z,95722.53
2023-04-11T05:23:31.289Z,95713.06
2023-04-11T05:26:16.577Z,95722.34
2023-04-11T05:29:02.010Z,95716.25
2023-04-11T05:31:47.014Z,95715.44
2023-04-11T05:34:33.373Z,95711.19
2023-04-11T05:37:18.545Z,95715.44
2023-04-11T05:40:04.065Z,95712.09
2023-04-11T05:42:49.199Z,95710.69
2023-04-11T05:45:34.797Z,95704.44
2023-04-11T05:48:20.151Z,95710.34
2023-04-11T05:51:06.195Z,95696.94
2023-04-11T05:53:51.387Z,95684.03
2023-04-11T05:56:39.754Z,95678.41
2023-04-11T05:59:27.680Z,95675.53
2023-04-11T06:02:14.035Z,95669.00
2023-04-11T06:04:59.412Z,95669.00
2023-04-11T06:07:45.368Z,95663.78
2023-04-11T06:10:31.247Z,95663.50
2023-04-11T06:13:16.323Z,95658.94
2023-04-11T06:16:02.224Z,95659.16
2023-04-11T06:18:47.651Z,95649.41
2023-04-11T06:21:33.029Z,95636.06
2023-04-11T06:24:20.683Z,95632.13
2023-04-11T06:27:06.638Z,95627.72
2023-04-11T06:29:51.940Z,95629.59
2023-04-11T06:32:37.255Z,95624.19
2023-04-11T06:35:25.071Z,95615.31
2023-04-11T06:38:10.169Z,95611.09
2023-04-11T06:40:56.471Z,95604.69
2023-04-11T06:43:42.196Z,95602.53
2023-04-11T06:46:27.344Z,95597.91
2023-04-11T06:49:12.536Z,95595.69
2023-04-11T06:51:57.712Z,95598.97
2023-04-11T06:54:42.896Z,95591.53
2023-04-11T06:57:28.328Z,95592.97
2023-04-11T07:00:13.801Z,95592.19
2023-04-11T07:02:59.537Z,95584.06
2023-04-11T07:05:45.199Z,95580.41
2023-04-11T07:08:30.483Z,95577.78
2023-04-11T07:11:15.823Z,95568.47
2023-04-11T07:14:01.906Z,95567.06
2023-04-11T07:16:47.069Z,95565.44
2023-04-11T07:19:32.524Z,95564.06
2023-04-11T07:22:17.826Z,95560.25
2023-04-11T07:25:05.317Z,95550.13
2023-04-11T07:27:51.501Z,95538.94
2023-04-11T07:30:37.308Z,95535.13
2023-04-11T07:33:22.310Z,95531.47
2023-04-11T07:36:08.300Z,95521.91
2023-04-11T07:38:54.152Z,95514.81
2023-04-11T07:41:39.508Z,95513.59
2023-04-11T07:44:25.101Z,95519.69
2023-04-11T07:47:10.493Z,95512.97
2023-04-11T07:49:56.537Z,95510.53
2023-04-11T07:52:41.747Z,95503.19
2023-04-11T07:55:27.309Z,95502.19
2023-04-11T07:58:12.320Z,95499.53
2023-04-11T08:00:58.761Z,95486.28
2023-04-11T08:03:44.020Z,95475.31
2023-04-11T08:06:29.418Z,95471.59
2023-04-11T08:09:14.490Z,95470.34
2023-04-11T08:12:01.788Z,95472.13
2023-04-11T08:14:46.852Z,95467.97
2023-04-11T08:17:37.968Z,95479.47
2023-04-11T08:20:24.350Z,95469.66
2023-04-11T08:23:10.588Z,95483.41
2023-04-11T08:25:56.862Z,95480.06
2023-04-11T08:28:43.340Z,95474.94
2023-04-11T08:31:29.080Z,95473.50
2023-04-11T08:34:14.292Z,95477.03
2023-04-11T08:36:59.554Z,95471.91
2023-04-11T08:39:44.900Z,95462.69
2023-04-11T08:42:31.195Z,95463.00
2023-04-11T08:45:16.397Z,95456.19
2023-04-11T08:48:01.711Z,95450.59
2023-04-11T08:50:47.085Z,95447.91
2023-04-11T08:53:36.455Z,95449.25
2023-04-11T08:56:21.686Z,95446.09
2023-04-11T08:59:07.109Z,95441.72
2023-04-11T09:01:52.426Z,95427.53
2023-04-11T09:04:42.269Z,95430.09
2023-04-11T09:07:29.059Z,95421.22
2023-04-11T09:10:21.531Z,95415.72
2023-04-11T09:13:19.843Z,95409.06
2023-04-11T09:16:10.666Z,95404.13
2023-04-11T09:18:56.120Z,95400.13
2023-04-11T09:21:52.931Z,95394.88
2023-04-11T09:24:38.370Z,95388.56
2023-04-11T09:27:26.229Z,95385.34
2023-04-11T09:30:22.718Z,95383.41
2023-04-11T09:33:30.009Z,95386.75
2023-04-11T09:36:21.747Z,95383.06
2023-04-11T09:39:20.435Z,95376.47
2023-04-11T09:42:24.836Z,95381.88
2023-04-11T09:45:21.573Z,95370.84
2023-04-11T09:48:07.262Z,95359.63
2023-04-11T09:50:53.517Z,95351.78
2023-04-11T09:53:38.489Z,95347.28
2023-04-11T09:56:26.769Z,95333.09
2023-04-11T09:59:14.389Z,95329.75
2023-04-11T10:01:59.642Z,95323.53
2023-04-11T10:04:45.119Z,95322.59
2023-04-11T10:07:30.326Z,95320.06
2023-04-11T10:10:17.855Z,95315.44
2023-04-11T10:13:03.584Z,95312.47
2023-04-11T10:16:12.456Z,95306.25
2023-04-11T10:18:57.826Z,95292.72
2023-04-11T10:21:43.145Z,95290.03
2023-04-11T10:24:28.884Z,95282.03
2023-04-11T10:27:13.983Z,95281.13
2023-04-11T10:29:59.292Z,95269.28
2023-04-11T10:33:18.008Z,95264.25
2023-04-11T10:36:10.347Z,95262.00
2023-04-11T10:38:55.740Z,95256.47
2023-04-11T10:41:41.189Z,95257.13
2023-04-11T10:44:26.290Z,95258.06
2023-04-11T10:47:17.741Z,95265.38
2023-04-11T10:50:03.663Z,95257.91
2023-04-11T10:52:48.873Z,95255.47
2023-04-11T10:55:54.558Z,95247.59
2023-04-11T10:58:40.334Z,95242.69
2023-04-11T11:01:37.104Z,95244.94
2023-04-11T11:04:39.281Z,95248.25
2023-04-11T11:07:24.872Z,95245.84
2023-04-11T11:10:10.407Z,95237.53
2023-04-11T11:12:56.137Z,95233.09
2023-04-11T11:15:47.631Z,95232.00
2023-04-11T11:18:32.960Z,95222.31
2023-04-11T11:21:26.751Z,95227.97
2023-04-11T11:24:13.370Z,95230.19
2023-04-11T11:26:59.209Z,95227.13
2023-04-11T11:29:44.757Z,95223.44
2023-04-11T11:32:32.708Z,95222.69
2023-04-11T11:35:18.681Z,95214.47
2023-04-11T11:38:04.169Z,95204.97
2023-04-11T11:40:49.703Z,95195.34
2023-04-11T11:43:36.870Z,95196.16
2023-04-11T11:46:22.012Z,95200.63
2023-04-11T11:49:08.483Z,95198.91
2023-04-11T11:51:53.684Z,95203.25
2023-04-11T11:54:47.149Z,95195.34
2023-04-11T11:57:33.583Z,95191.16
2023-04-11T12:00:29.517Z,95184.81
2023-04-11T12:03:18.409Z,95179.50
2023-04-11T12:06:04.181Z,95184.31
2023-04-11T12:08:52.028Z,95183.22
2023-04-11T12:11:42.142Z,95173.03
2023-04-11T12:14:27.733Z,95170.88
2023-04-11T12:17:12.869Z,95175.56
2023-04-11T12:19:58.153Z,95172.91
2023-04-11T12:22:43.593Z,95166.00
2023-04-11T12:25:28.690Z,95166.97
2023-04-11T12:28:14.426Z,95171.75
2023-04-11T12:31:00.066Z,95160.59
2023-04-11T12:33:45.341Z,95158.44
2023-04-11T12:39:15.876Z,95158.56
2023-04-11T12:42:01.348Z,95150.34
2023-04-11T12:44:47.458Z,95146.91
2023-04-11T12:47:32.735Z,95148.06
2023-04-11T12:50:18.464Z,95138.50
2023-04-11T12:53:03.783Z,95137.53
2023-04-11T12:55:49.267Z,95135.47
2023-04-11T12:58:34.827Z,95136.63
2023-04-11T13:01:20.246Z,95129.50
2023-04-11T13:04:05.897Z,95119.72
2023-04-11T13:06:52.456Z,95111.16
2023-04-11T13:09:37.445Z,95117.88
2023-04-11T13:12:22.703Z,95107.38
2023-04-11T13:15:09.871Z,95101.63
2023-04-11T13:17:55.455Z,95095.59
2023-04-11T13:20:40.976Z,95090.91
2023-04-11T13:23:26.119Z,95095.50
2023-04-11T13:26:11.408Z,95088.06
2023-04-11T13:28:56.813Z,95079.91
2023-04-11T13:31:42.167Z,95081.94
2023-04-11T13:34:27.284Z,95075.34
2023-04-11T13:37:12.694Z,95065.84
2023-04-11T13:39:57.904Z,95064.56
2023-04-11T13:42:43.253Z,95060.25
2023-04-11T13:45:28.634Z,95053.34
2023-04-11T13:48:13.866Z,95053.88
2023-04-11T13:51:00.593Z,95060.50
2023-04-11T13:53:45.893Z,95047.19
2023-04-11T13:56:31.366Z,95052.28
2023-04-11T13:59:16.684Z,95041.09
2023-04-11T14:02:02.673Z,95041.63
2023-04-11T14:04:47.925Z,95033.38
2023-04-11T14:07:33.185Z,95037.94
2023-04-11T14:10:18.640Z,95040.06
2023-04-11T14:13:05.472Z,95029.94
2023-04-11T14:16:04.944Z,95036.31
2023-04-11T14:18:52.832Z,95034.00
2023-04-11T14:21:38.126Z,95028.16
2023-04-11T14:24:23.461Z,95032.97
2023-04-11T14:27:09.031Z,95030.03
2023-04-11T14:29:54.078Z,95021.72
2023-04-11T14:32:40.138Z,95033.50
2023-04-11T14:35:25.590Z,95024.63
2023-04-11T14:38:10.914Z,95025.63
2023-04-11T14:40:56.745Z,95019.72
2023-04-11T14:43:41.737Z,95013.84
2023-04-11T14:46:27.892Z,95009.81
2023-04-11T14:49:13.128Z,95015.94
2023-04-11T14:51:58.558Z,95008.50
2023-04-11T14:54:43.894Z,95005.81
2023-04-11T14:57:51.184Z,95009.50
2023-04-11T15:00:36.687Z,94996.66
2023-04-11T15:03:21.974Z,94999.31
2023-04-11T15:06:07.612Z,94997.13
2023-04-11T15:08:52.980Z,94998.13
2023-04-11T15:11:38.456Z,94997.75
2023-04-11T15:14:29.406Z,95002.00
2023-04-11T15:17:14.637Z,94988.91
2023-04-11T15:20:00.003Z,94988.59
2023-04-11T15:22:46.579Z,94991.03
2023-04-11T15:25:31.606Z,94985.72
2023-04-11T15:28:16.842Z,94984.91
2023-04-11T15:31:04.356Z,94987.22
2023-04-11T15:33:49.502Z,94982.41
2023-04-11T15:36:38.246Z,94988.75
2023-04-11T15:39:23.804Z,94986.56
2023-04-11T15:42:09.201Z,94980.63
2023-04-11T15:44:54.444Z,94981.66
2023-04-11T15:47:39.382Z,94980.03
2023-04-11T15:50:24.617Z,94985.63
2023-04-11T15:53:09.991Z,94983.22
2023-04-11T15:55:54.939Z,94983.69
2023-04-11T15:58:40.361Z,94980.91
2023-04-11T16:01:25.847Z,94975.78
2023-04-11T16:04:11.430Z,94976.03
2023-04-11T16:06:57.141Z,94990.75
2023-04-11T16:09:42.714Z,94982.22
2023-04-11T16:12:27.935Z,94975.31
2023-04-11T16:15:13.125Z,94979.59
2023-04-11T16:17:58.332Z,94989.06
2023-04-11T16:20:43.420Z,94998.22
2023-04-11T16:23:28.670Z,94999.22
2023-04-11T16:26:14.042Z,95008.09
2023-04-11T16:28:59.415Z,95009.66
2023-04-11T16:31:44.847Z,94995.09
2023-04-11T16:34:30.360Z,95000.78
2023-04-11T16:37:16.088Z,95000.69
2023-04-11T16:40:01.545Z,95005.28
2023-04-11T16:42:46.844Z,95006.44
2023-04-11T16:45:33.161Z,95006.59
2023-04-11T16:48:18.937Z,95007.69
2023-04-11T16:51:04.260Z,95009.56
2023-04-11T16:53:50.322Z,95010.13
2023-04-11T16:56:38.347Z,94997.97
2023-04-11T16:59:23.656Z,95000.38
2023-04-11T17:02:09.153Z,95000.56
2023-04-11T17:04:54.224Z,95011.44
2023-04-11T17:07:39.347Z,95013.19
2023-04-11T17:10:24.877Z,95025.53
2023-04-11T17:13:11.741Z,95014.78
2023-04-11T17:15:56.813Z,95010.25
2023-04-11T17:18:41.907Z,95014.59
2023-04-11T17:21:27.518Z,95011.19
2023-04-11T17:24:12.545Z,95010.50
2023-04-11T17:26:58.109Z,95009.94
2023-04-11T17:29:43.591Z,95013.03
2023-04-11T17:32:28.853Z,95005.75
2023-04-11T17:35:14.588Z,95007.38
2023-04-11T17:38:00.719Z,95004.03
2023-04-11T17:40:46.451Z,95000.00
2023-04-11T17:43:32.124Z,94998.25
2023-04-11T17:46:17.740Z,94997.00
2023-04-11T17:49:03.217Z,94995.25
2023-04-11T17:51:56.572Z,94997.38
2023-04-11T17:54:43.779Z,94989.06
2023-04-11T17:57:29.083Z,94994.06
2023-04-11T18:00:26.291Z,94995.56
2023-04-11T18:03:11.502Z,94998.34
2023-04-11T18:05:57.364Z,95006.16
2023-04-11T18:08:50.988Z,95000.72
2023-04-11T18:11:37.072Z,94990.25
2023-04-11T18:14:22.274Z,94984.72
2023-04-11T18:17:07.409Z,94985.97
2023-04-11T18:19:52.737Z,94971.25
2023-04-11T18:22:40.333Z,94979.88
2023-04-11T18:25:25.774Z,94995.44
2023-04-11T18:28:11.242Z,94995.53
2023-04-11T18:30:56.822Z,95003.13
2023-04-11T18:33:45.302Z,95013.59
2023-04-11T18:36:31.444Z,95017.25
2023-04-11T18:39:17.643Z,95004.38
2023-04-11T18:42:04.012Z,95009.19
2023-04-11T18:44:49.643Z,95016.28
2023-04-11T18:47:35.567Z,95017.69
2023-04-11T18:50:22.880Z,95028.06
2023-04-11T18:53:11.242Z,95017.72
2023-04-11T18:55:58.216Z,95018.66
2023-04-11T18:58:45.442Z,95027.97
2023-04-11T19:01:31.980Z,95024.06
2023-04-11T19:04:18.129Z,95027.41
2023-04-11T19:07:03.902Z,95032.25
2023-04-11T19:09:50.168Z,95030.19
2023-04-11T19:12:37.301Z,95039.97
2023-04-11T19:15:23.021Z,95047.66
2023-04-11T19:18:09.110Z,95040.78
2023-04-11T19:20:54.734Z,95040.78
2023-04-11T19:23:39.994Z,95038.31
2023-04-11T19:26:28.733Z,95033.84
2023-04-11T19:29:13.877Z,95042.00
2023-04-11T19:31:59.033Z,95041.19
2023-04-11T19:34:44.765Z,95024.75
2023-04-11T19:37:30.738Z,95038.00
2023-04-11T19:40:18.588Z,95031.06
2023-04-11T19:43:04.494Z,95030.94
2023-04-11T19:45:49.947Z,95026.19
2023-04-11T19:48:35.828Z,95034.88
2023-04-11T19:51:21.621Z,95039.25
2023-04-11T19:54:07.392Z,95031.50
2023-04-11T19:56:53.116Z,95029.75
2023-04-11T19:59:38.173Z,95032.75
2023-04-11T20:02:23.791Z,95030.47
2023-04-11T20:05:09.639Z,95032.84
2023-04-11T20:07:54.676Z,95039.25
2023-04-11T20:10:41.000Z,95032.72
2023-04-11T20:13:26.342Z,95039.75
2023-04-11T20:16:11.772Z,95045.50
2023-04-11T20:18:57.007Z,95035.16
2023-04-11T20:21:42.199Z,95035.59
2023-04-11T20:24:27.817Z,95038.84
2023-04-11T20:27:13.423Z,95041.72
2023-04-11T20:29:58.842Z,95048.06
2023-04-11T20:32:44.550Z,95054.88
2023-04-11T20:35:30.116Z,95059.34
2023-04-11T20:38:15.388Z,95056.94
2023-04-11T20:41:03.990Z,95057.47
2023-04-11T20:43:49.395Z,95067.59
2023-04-11T20:46:40.006Z,95073.03
2023-04-11T20:49:28.153Z,95078.66
2023-04-11T20:52:13.591Z,95087.00
2023-04-11T20:54:59.603Z,95086.25
2023-04-11T20:57:45.142Z,95095.31
2023-04-11T21:00:30.227Z,95090.06
2023-04-11T21:03:15.858Z,95096.50
2023-04-11T21:06:04.307Z,95094.88
2023-04-11T21:08:49.574Z,95094.00
2023-04-11T21:11:35.080Z,95095.22
2023-04-11T21:14:20.774Z,95102.09
2023-04-11T21:17:07.487Z,95097.13
2023-04-11T21:19:52.618Z,95102.41
2023-04-11T21:22:38.230Z,95112.16
2023-04-11T21:25:23.746Z,95108.03
2023-04-11T21:28:09.271Z,95103.94
2023-04-11T21:30:54.692Z,95108.03
2023-04-11T21:33:40.010Z,95102.19
2023-04-11T21:36:25.291Z,95100.81
2023-04-11T21:39:10.736Z,95099.66
2023-04-11T21:41:56.682Z,95095.81
2023-04-11T21:44:41.780Z,95100.88
2023-04-11T21:47:27.281Z,95103.88
2023-04-11T21:50:12.666Z,95100.00
2023-04-11T21:52:58.190Z,95100.00
2023-04-11T21:55:46.780Z,95094.72
2023-04-11T21:58:32.365Z,95100.00
2023-04-11T22:01:20.670Z,95092.72
2023-04-11T22:04:06.179Z,95104.56
2023-04-11T22:06:51.599Z,95102.75
2023-04-11T22:09:38.169Z,95104.25
2023-04-11T22:12:23.336Z,95120.97
2023-04-11T22:15:09.796Z,95106.56
2023-04-11T22:17:56.555Z,95108.53
2023-04-11T22:20:44.149Z,95104.69
2023-04-11T22:23:30.013Z,95099.19
2023-04-11T22:26:15.042Z,95098.22
2023-04-11T22:29:05.174Z,95112.06
2023-04-11T22:31:50.816Z,95101.56
2023-04-11T22:34:36.491Z,95108.88
2023-04-11T22:37:21.606Z,95104.44
2023-04-11T22:40:08.971Z,95108.81
2023-04-11T22:42:54.405Z,95104.94
2023-04-11T22:45:40.072Z,95106.16
2023-04-11T22:48:30.066Z,95099.84
2023-04-11T22:51:16.314Z,95096.34
2023-04-11T22:54:02.371Z,95096.78
2023-04-11T22:56:55.081Z,95101.28
2023-04-11T22:59:40.041Z,95086.50
2023-04-11T23:02:27.519Z,95082.59
2023-04-11T23:05:12.793Z,95088.25
2023-04-11T23:07:58.250Z,95087.09
2023-04-11T23:10:43.569Z,95080.78
2023-04-11T23:13:29.932Z,95083.41
2023-04-11T23:16:15.192Z,95079.78
2023-04-11T23:19:01.214Z,95074.91
2023-04-11T23:21:46.349Z,95074.13
2023-04-11T23:24:31.652Z,95067.69
2023-04-11T23:27:17.126Z,95064.97
2023-04-11T23:30:02.378Z,95069.91
2023-04-11T23:32:48.392Z,95069.94
2023-04-11T23:35:34.499Z,95067.72
2023-04-11T23:38:20.053Z,95067.38
2023-04-11T23:41:05.999Z,95066.53
2023-04-11T23:43:51.272Z,95064.13
2023-04-11T23:46:37.094Z,95058.69
2023-04-11T23:49:22.633Z,95060.28
2023-04-11T23:52:08.138Z,95057.47
2023-04-11T23:54:53.434Z,95053.28
2023-04-11T23:57:38.655Z,95050.28
